createdAt,value
2017-09-04T00:00:31.090Z,-0.7
2017-09-04T00:01:30.284Z,-0.7
2017-09-04T00:02:29.476Z,-0.7
2017-09-04T00:03:28.791Z,-0.6
2017-09-04T00:05:26.990Z,-0.5
2017-09-04T00:06:26.295Z,-0.6
2017-09-04T00:07:25.356Z,-0.6
2017-09-04T00:08:24.425Z,-0.5
2017-09-04T00:10:22.995Z,-0.6
2017-09-04T00:11:22.430Z,-0.6
2017-09-04T00:12:21.248Z,-0.5
2017-09-04T00:14:20.087Z,-0.5
2017-09-04T00:16:18.291Z,-0.7
2017-09-04T00:17:17.098Z,-0.7
2017-09-04T00:18:16.541Z,-0.7
2017-09-04T00:19:15.844Z,-0.7
2017-09-04T00:20:15.156Z,-0.7
2017-09-04T00:20:45.164Z,-0.7
2017-09-04T00:21:16.049Z,-0.7
2017-09-04T00:21:46.300Z,-0.7
2017-09-04T00:22:16.419Z,-0.6
2017-09-04T00:22:47.163Z,-0.6
2017-09-04T00:24:11.388Z,-0.7
2017-09-04T00:25:10.695Z,-0.7
2017-09-04T00:26:10.266Z,-0.6
2017-09-04T00:27:09.072Z,-0.6
2017-09-04T00:28:08.510Z,-0.6
2017-09-04T00:29:07.207Z,-0.6
2017-09-04T00:30:06.651Z,-0.6
2017-09-04T00:31:05.837Z,-0.6
2017-09-04T00:32:05.027Z,-0.6
2017-09-04T00:33:04.339Z,-0.7
2017-09-04T00:34:03.907Z,-0.7
2017-09-04T00:35:02.596Z,-0.6
2017-09-04T00:36:02.177Z,-0.6
2017-09-04T00:37:00.988Z,-0.6
2017-09-04T00:38:00.431Z,-0.6
2017-09-04T00:39:58.386Z,-0.6
2017-09-04T00:40:57.440Z,-0.6
2017-09-04T00:41:57.125Z,-0.5
2017-09-04T00:42:56.061Z,-0.5
2017-09-04T00:43:55.621Z,-0.5
2017-09-04T00:44:54.305Z,-0.5
2017-09-04T00:45:53.937Z,-0.6
2017-09-04T00:46:52.877Z,-0.6
2017-09-04T00:47:51.929Z,-0.6
2017-09-04T00:48:51.119Z,-0.6
2017-09-04T00:49:50.429Z,-0.6
2017-09-04T00:50:49.856Z,-0.6
2017-09-04T00:51:49.029Z,-0.6
2017-09-04T00:52:19.156Z,-0.6
2017-09-04T00:52:49.405Z,-0.5
2017-09-04T00:53:47.499Z,-0.5
2017-09-04T00:54:46.304Z,-0.6
2017-09-04T00:56:44.886Z,-0.5
2017-09-04T00:57:44.319Z,-0.5
2017-09-04T00:58:43.137Z,-0.5
2017-09-04T00:59:42.198Z,-0.7
2017-09-04T01:00:41.503Z,-0.6
2017-09-04T01:01:40.827Z,-0.7
2017-09-04T01:02:39.765Z,-0.6
2017-09-04T01:03:39.092Z,-0.7
2017-09-04T01:05:37.309Z,-0.6
2017-09-04T01:06:36.636Z,-0.5
2017-09-04T01:07:35.690Z,-0.6
2017-09-04T01:09:34.148Z,-0.6
2017-09-04T01:10:33.705Z,-0.6
2017-09-04T01:11:32.636Z,-0.6
2017-09-04T01:12:31.945Z,-0.8
2017-09-04T01:13:31.153Z,-0.7
2017-09-04T01:14:30.225Z,-0.6
2017-09-04T01:15:29.045Z,-0.7
2017-09-04T01:16:28.224Z,-0.7
2017-09-04T01:18:27.056Z,-0.6
2017-09-04T01:19:25.751Z,-0.6
2017-09-04T01:20:24.939Z,-0.7
2017-09-04T01:21:24.256Z,-0.6
2017-09-04T01:22:23.579Z,-0.6
2017-09-04T01:23:22.254Z,-0.8
2017-09-04T01:24:22.200Z,-0.8
2017-09-04T01:26:20.153Z,-0.6
2017-09-04T01:27:19.469Z,-0.6
2017-09-04T01:28:18.160Z,-0.6
2017-09-04T01:29:17.966Z,-0.8
2017-09-04T01:30:16.772Z,-0.8
2017-09-04T01:31:15.957Z,-0.8
2017-09-04T01:32:15.396Z,-0.7
2017-09-04T01:33:14.323Z,-0.7
2017-09-04T01:34:13.892Z,-0.7
2017-09-04T01:35:12.696Z,-0.7
2017-09-04T01:36:12.136Z,-0.7
2017-09-04T01:37:11.452Z,-0.7
2017-09-04T01:38:10.395Z,-0.7
2017-09-04T01:39:09.584Z,-0.7
2017-09-04T01:41:07.784Z,-0.6
2017-09-04T01:43:06.110Z,-0.6
2017-09-04T01:44:05.308Z,-0.6
2017-09-04T01:45:04.619Z,-0.6
2017-09-04T01:46:03.931Z,-0.7
2017-09-04T01:46:34.318Z,-0.7
2017-09-04T01:47:04.685Z,-0.7
2017-09-04T01:47:34.930Z,-0.7
2017-09-04T01:48:05.550Z,-0.6
2017-09-04T01:49:01.349Z,-0.6
2017-09-04T01:50:00.425Z,-0.6
2017-09-04T01:50:59.902Z,-0.7
2017-09-04T01:51:58.959Z,-0.7
2017-09-04T01:52:57.771Z,-0.7
2017-09-04T01:53:56.999Z,-0.7
2017-09-04T01:54:56.570Z,-0.7
2017-09-04T01:56:54.770Z,-0.7
2017-09-04T01:57:54.210Z,-0.7
2017-09-04T01:58:53.035Z,-0.7
2017-09-04T01:59:52.465Z,-0.7
2017-09-04T02:01:50.416Z,-0.6
2017-09-04T02:02:49.738Z,-0.6
2017-09-04T02:03:48.797Z,-0.7
2017-09-04T02:04:48.366Z,-0.6
2017-09-04T02:05:47.216Z,-0.6
2017-09-04T02:06:46.649Z,-0.6
2017-09-04T02:09:44.110Z,-0.6
2017-09-04T02:10:43.172Z,-0.6
2017-09-04T02:11:42.356Z,-0.6
2017-09-04T02:12:41.803Z,-0.6
2017-09-04T02:13:40.780Z,-0.5
2017-09-04T02:14:40.209Z,-0.6
2017-09-04T02:15:39.026Z,-0.5
2017-09-04T02:16:38.607Z,-0.7
2017-09-04T02:17:37.545Z,-0.6
2017-09-04T02:18:36.865Z,-0.7
2017-09-04T02:19:36.174Z,-0.5
2017-09-04T02:20:34.997Z,-0.7
2017-09-04T02:21:33.942Z,-0.5
2017-09-04T02:22:33.016Z,-0.8
2017-09-04T02:23:32.703Z,-0.7
2017-09-04T02:25:30.892Z,-0.7
2017-09-04T02:26:30.082Z,-0.7
2017-09-04T02:27:00.583Z,-0.7
2017-09-04T02:29:27.330Z,-0.6
2017-09-04T02:30:26.653Z,-0.6
2017-09-04T02:31:26.087Z,-0.7
2017-09-04T02:33:24.398Z,-0.7
2017-09-04T02:34:23.085Z,-0.6
2017-09-04T02:35:22.672Z,-0.7
2017-09-04T02:37:20.873Z,-0.7
2017-09-04T02:37:51.487Z,-0.7
2017-09-04T02:38:22.365Z,-0.7
2017-09-04T02:38:52.224Z,-0.7
2017-09-04T02:40:18.580Z,-0.8
2017-09-04T02:41:17.641Z,-0.8
2017-09-04T02:42:17.095Z,-0.7
2017-09-04T02:43:16.028Z,-0.7
2017-09-04T02:44:15.331Z,-0.8
2017-09-04T02:45:14.134Z,-0.8
2017-09-04T02:46:13.568Z,-0.8
2017-09-04T02:47:12.876Z,-0.7
2017-09-04T02:48:12.186Z,-0.6
2017-09-04T02:49:10.857Z,-0.8
2017-09-04T02:50:10.290Z,-0.7
2017-09-04T02:51:09.363Z,-0.7
2017-09-04T02:52:08.585Z,-0.7
2017-09-04T02:53:07.653Z,-0.7
2017-09-04T02:54:07.218Z,-0.7
2017-09-04T02:55:06.018Z,-0.8
2017-09-04T02:56:05.085Z,-0.8
2017-09-04T02:57:04.149Z,-0.8
2017-09-04T02:58:03.701Z,-0.7
2017-09-04T02:59:02.998Z,-0.7
2017-09-04T03:00:01.930Z,-0.7
2017-09-04T03:01:01.131Z,-0.7
2017-09-04T03:02:00.307Z,-0.6
2017-09-04T03:02:59.615Z,-0.6
2017-09-04T03:03:58.802Z,-0.6
2017-09-04T03:04:58.069Z,-0.6
2017-09-04T03:05:57.262Z,-0.6
2017-09-04T03:06:56.567Z,-0.7
2017-09-04T03:07:55.374Z,-0.7
2017-09-04T03:08:54.677Z,-0.7
2017-09-04T03:09:53.352Z,-0.6
2017-09-04T03:10:53.412Z,-0.6
2017-09-04T03:11:52.217Z,-0.7
2017-09-04T03:12:51.284Z,-0.7
2017-09-04T03:13:50.721Z,-0.7
2017-09-04T03:14:49.270Z,-0.7
2017-09-04T03:15:48.709Z,-0.7
2017-09-04T03:18:46.545Z,-0.7
2017-09-04T03:19:45.483Z,-0.7
2017-09-04T03:20:44.546Z,-0.6
2017-09-04T03:23:41.868Z,-0.7
2017-09-04T03:25:40.433Z,-0.7
2017-09-04T03:26:39.615Z,-0.7
2017-09-04T03:27:38.801Z,-0.6
2017-09-04T03:28:37.979Z,-0.7
2017-09-04T03:29:37.547Z,-0.7
2017-09-04T03:30:36.475Z,-0.8
2017-09-04T03:31:35.283Z,-0.8
2017-09-04T03:33:33.991Z,-0.7
2017-09-04T03:34:33.432Z,-0.7
2017-09-04T03:35:32.485Z,-0.7
2017-09-04T03:37:30.850Z,-0.8
2017-09-04T03:38:29.401Z,-0.8
2017-09-04T03:39:28.964Z,-0.8
2017-09-04T03:40:28.260Z,-0.8
2017-09-04T03:41:27.592Z,-0.8
2017-09-04T03:42:26.645Z,-0.9
2017-09-04T03:43:25.328Z,-0.8
2017-09-04T03:44:24.381Z,-0.9
2017-09-04T03:45:23.688Z,-0.8
2017-09-04T03:46:22.993Z,-0.8
2017-09-04T03:47:22.167Z,-0.9
2017-09-04T03:48:21.582Z,-0.8
2017-09-04T03:49:20.894Z,-0.7
2017-09-04T03:50:19.448Z,-0.7
2017-09-04T03:51:18.744Z,-0.8
2017-09-04T03:52:18.063Z,-0.8
2017-09-04T03:53:17.128Z,-0.8
2017-09-04T03:55:15.700Z,-0.9
2017-09-04T03:56:14.508Z,-0.9
2017-09-04T03:57:13.699Z,-0.8
2017-09-04T03:58:13.141Z,-0.9
2017-09-04T04:00:11.319Z,-0.7
2017-09-04T04:01:10.747Z,-0.6
2017-09-04T04:02:09.815Z,-0.6
2017-09-04T04:05:07.274Z,-0.6
2017-09-04T04:06:06.589Z,-0.6
2017-09-04T04:09:04.186Z,-0.8
2017-09-04T04:13:00.904Z,-0.7
2017-09-04T04:13:59.589Z,-0.7
2017-09-04T04:14:58.895Z,-0.7
2017-09-04T04:15:58.084Z,-0.6
2017-09-04T04:17:56.147Z,-0.7
2017-09-04T04:18:55.449Z,-0.8
2017-09-04T04:19:54.631Z,-0.7
2017-09-04T04:21:52.944Z,-0.7
2017-09-04T04:22:52.131Z,-0.7
2017-09-04T04:24:50.346Z,-0.8
2017-09-04T04:25:49.776Z,-0.8
2017-09-04T04:26:48.970Z,-0.8
2017-09-04T04:27:48.026Z,-0.8
2017-09-04T04:28:47.345Z,-0.8
2017-09-04T04:29:46.161Z,-0.8
2017-09-04T04:30:45.740Z,-0.8
2017-09-04T04:31:45.165Z,-0.8
2017-09-04T04:32:43.972Z,-0.8
2017-09-04T04:33:43.156Z,-0.8
2017-09-04T04:34:42.214Z,-0.8
2017-09-04T04:35:41.513Z,-0.8
2017-09-04T04:36:40.444Z,-0.8
2017-09-04T04:37:39.628Z,-0.8
2017-09-04T04:38:38.943Z,-0.9
2017-09-04T04:39:37.753Z,-1
2017-09-04T04:40:36.928Z,-1
2017-09-04T04:41:36.367Z,-0.9
2017-09-04T04:42:35.670Z,-0.9
2017-09-04T04:44:34.562Z,-0.9
2017-09-04T04:45:32.744Z,-0.9
2017-09-04T04:46:31.933Z,-1
2017-09-04T04:47:31.241Z,-0.9
2017-09-04T04:48:30.795Z,-0.9
2017-09-04T04:49:29.602Z,-0.9
2017-09-04T04:50:29.019Z,-0.9
2017-09-04T04:51:27.834Z,-1
2017-09-04T04:52:27.146Z,-1
2017-09-04T04:53:26.449Z,-1.1
2017-09-04T04:54:25.017Z,-1.1
2017-09-04T04:55:24.824Z,-1
2017-09-04T04:56:23.633Z,-1
2017-09-04T04:57:22.816Z,-1.1
2017-09-04T04:58:22.375Z,-1.1
2017-09-04T04:59:20.927Z,-1.1
2017-09-04T05:00:20.488Z,-1.1
2017-09-04T05:01:19.667Z,-1.1
2017-09-04T05:02:18.855Z,-1.1
2017-09-04T05:03:17.912Z,-1
2017-09-04T05:04:17.231Z,-1
2017-09-04T05:05:16.402Z,-1
2017-09-04T05:07:14.343Z,-1
2017-09-04T05:08:13.526Z,-1
2017-09-04T05:09:12.825Z,-1.1
2017-09-04T05:10:12.259Z,-1
2017-09-04T05:12:10.713Z,-1
2017-09-04T05:13:09.656Z,-0.9
2017-09-04T05:14:08.207Z,-1
2017-09-04T05:16:06.773Z,-1.2
2017-09-04T05:17:05.836Z,-1.2
2017-09-04T05:18:05.005Z,-1.2
2017-09-04T05:19:04.312Z,-1.3
2017-09-04T05:20:03.749Z,-1.3
2017-09-04T05:21:02.680Z,-1.3
2017-09-04T05:22:01.858Z,-1.4
2017-09-04T05:23:01.042Z,-1.4
2017-09-04T05:24:59.487Z,-1.4
2017-09-04T05:25:58.163Z,-1.4
2017-09-04T05:26:58.106Z,-1.5
2017-09-04T05:27:56.924Z,-1.4
2017-09-04T05:28:55.980Z,-1.5
2017-09-04T05:29:55.279Z,-1.5
2017-09-04T05:30:54.467Z,-1.6
2017-09-04T05:31:53.946Z,-1.7
2017-09-04T05:32:52.625Z,-1.8
2017-09-04T05:33:51.797Z,-1.9
2017-09-04T05:34:50.973Z,-2.1
2017-09-04T05:35:50.035Z,-2.3
2017-09-04T05:36:49.092Z,-2.4
2017-09-04T05:37:48.296Z,-2.5
2017-09-04T05:38:47.469Z,-2.7
2017-09-04T05:39:46.521Z,-2.7
2017-09-04T05:40:45.953Z,-2.8
2017-09-04T05:41:45.377Z,-2.8
2017-09-04T05:42:44.051Z,-2.8
2017-09-04T05:43:42.978Z,-2.7
2017-09-04T05:44:42.161Z,-2.8
2017-09-04T05:45:41.849Z,-2.9
2017-09-04T05:46:41.032Z,-2.9
2017-09-04T05:47:40.086Z,-3
2017-09-04T05:48:39.394Z,-2.9
2017-09-04T05:49:38.460Z,-3
2017-09-04T05:50:37.516Z,-3.2
2017-09-04T05:51:37.074Z,-3
2017-09-04T05:52:35.618Z,-3
2017-09-04T05:53:34.924Z,-3.1
2017-09-04T05:54:34.109Z,-3.1
2017-09-04T05:55:33.296Z,-2.7
2017-09-04T05:56:32.863Z,-2.7
2017-09-04T05:57:31.676Z,-2.9
2017-09-04T05:58:30.873Z,-2.7
2017-09-04T05:59:29.937Z,-2.7
2017-09-04T06:00:29.116Z,-2.8
2017-09-04T06:01:28.553Z,-2.7
2017-09-04T06:02:27.365Z,-2.8
2017-09-04T06:03:26.550Z,-2.9
2017-09-04T06:05:24.872Z,-2.7
2017-09-04T06:06:24.302Z,-2.7
2017-09-04T06:07:23.235Z,-2.6
2017-09-04T06:08:22.418Z,-2.6
2017-09-04T06:09:21.343Z,-2.7
2017-09-04T06:10:20.654Z,-2.8
2017-09-04T06:11:19.841Z,-3
2017-09-04T06:12:19.279Z,-3.2
2017-09-04T06:13:18.095Z,-3
2017-09-04T06:14:17.283Z,-3
2017-09-04T06:15:16.841Z,-3.2
2017-09-04T06:16:15.773Z,-3.1
2017-09-04T06:17:14.960Z,-3
2017-09-04T06:18:13.636Z,-3.1
2017-09-04T06:19:13.207Z,-3.2
2017-09-04T06:20:12.508Z,-3.3
2017-09-04T06:21:11.322Z,-3.1
2017-09-04T06:22:10.511Z,-3.2
2017-09-04T06:23:09.812Z,-3.4
2017-09-04T06:24:08.997Z,-3.3
2017-09-04T06:25:08.320Z,-3.2
2017-09-04T06:25:38.685Z,-3.2
2017-09-04T06:26:08.796Z,-3.2
2017-09-04T06:27:06.465Z,-3.4
2017-09-04T06:28:05.780Z,-3.4
2017-09-04T06:29:05.089Z,-3.3
2017-09-04T06:30:03.890Z,-3.3
2017-09-04T06:31:03.084Z,-3.5
2017-09-04T06:32:02.133Z,-3.3
2017-09-04T06:33:01.313Z,-3.3
2017-09-04T06:34:00.750Z,-3.2
2017-09-04T06:35:00.069Z,-3.2
2017-09-04T06:35:58.880Z,-3.3
2017-09-04T06:36:57.805Z,-3.3
2017-09-04T06:37:57.485Z,-3.4
2017-09-04T06:38:56.418Z,-3.5
2017-09-04T06:39:55.477Z,-3.6
2017-09-04T06:40:54.654Z,-3.4
2017-09-04T06:41:54.226Z,-3.1
2017-09-04T06:42:53.028Z,-3.3
2017-09-04T06:43:52.337Z,-3.4
2017-09-04T06:44:23.096Z,-3.4
2017-09-04T06:45:51.092Z,-3.8
2017-09-04T06:46:49.775Z,-3.8
2017-09-04T06:47:49.193Z,-3.8
2017-09-04T06:48:48.490Z,-3.7
2017-09-04T06:49:47.416Z,-3.8
2017-09-04T06:50:46.716Z,-3.7
2017-09-04T06:51:46.158Z,-3.6
2017-09-04T06:52:45.096Z,-3.6
2017-09-04T06:53:44.027Z,-3.7
2017-09-04T06:54:43.331Z,-3.5
2017-09-04T06:55:42.637Z,-3.3
2017-09-04T06:56:42.188Z,-3.4
2017-09-04T06:57:41.125Z,-3.4
2017-09-04T06:58:40.431Z,-3.6
2017-09-04T06:59:39.267Z,-3.8
2017-09-04T07:00:38.576Z,-3.5
2017-09-04T07:01:37.644Z,-3.7
2017-09-04T07:02:36.826Z,-3.6
2017-09-04T07:03:36.140Z,-3.7
2017-09-04T07:04:35.463Z,-3.8
2017-09-04T07:05:34.151Z,-3.9
2017-09-04T07:06:33.330Z,-3.9
2017-09-04T07:07:33.140Z,-3.9
2017-09-04T07:08:32.071Z,-3.9
2017-09-04T07:10:30.274Z,-3.5
2017-09-04T07:11:29.705Z,-3.6
2017-09-04T07:12:28.888Z,-3.4
2017-09-04T07:13:27.953Z,-3.4
2017-09-04T07:14:27.511Z,-3.6
2017-09-04T07:15:26.061Z,-3.6
2017-09-04T07:16:25.245Z,-3.6
2017-09-04T07:17:24.425Z,-3.8
2017-09-04T07:18:23.853Z,-4.2
2017-09-04T07:19:23.285Z,-3.9
2017-09-04T07:19:53.658Z,-3.9
2017-09-04T07:20:23.526Z,-3.8
2017-09-04T07:21:21.319Z,-3.9
2017-09-04T07:22:20.630Z,-3.6
2017-09-04T07:23:19.934Z,-3.6
2017-09-04T07:24:19.251Z,-3.9
2017-09-04T07:25:17.939Z,-3.8
2017-09-04T07:26:17.371Z,-3.8
2017-09-04T07:27:16.555Z,-3.6
2017-09-04T07:28:15.988Z,-3.7
2017-09-04T07:29:15.049Z,-3.8
2017-09-04T07:30:14.096Z,-4
2017-09-04T07:31:13.771Z,-4.3
2017-09-04T07:32:12.712Z,-4.1
2017-09-04T07:33:12.149Z,-4
2017-09-04T07:34:11.226Z,-4.1
2017-09-04T07:35:10.286Z,-4.2
2017-09-04T07:36:09.741Z,-4.3
2017-09-04T07:37:08.674Z,-4.5
2017-09-04T07:38:07.861Z,-4.5
2017-09-04T07:39:07.053Z,-4.5
2017-09-04T07:40:06.231Z,-4.4
2017-09-04T07:41:05.165Z,-3.8
2017-09-04T07:42:04.224Z,-3.6
2017-09-04T07:43:03.530Z,-3.6
2017-09-04T07:44:03.334Z,-3.9
2017-09-04T07:45:02.257Z,-3.9
2017-09-04T07:46:01.328Z,-3.9
2017-09-04T07:47:00.515Z,-4
2017-09-04T07:47:59.829Z,-3.6
2017-09-04T07:48:59.139Z,-3.4
2017-09-04T07:49:58.194Z,-3.6
2017-09-04T07:50:57.633Z,-3.5
2017-09-04T07:52:55.818Z,-3.4
2017-09-04T07:53:55.240Z,-3.5
2017-09-04T07:54:53.931Z,-3.4
2017-09-04T07:55:53.529Z,-3.6
2017-09-04T07:56:52.839Z,-3.2
2017-09-04T07:57:51.770Z,-3.4
2017-09-04T07:58:51.208Z,-3.6
2017-09-04T07:59:50.409Z,-3.6
2017-09-04T08:00:49.463Z,-3.8
2017-09-04T08:02:48.423Z,-3.6
2017-09-04T08:03:47.106Z,-3.5
2017-09-04T08:04:46.298Z,-3.5
2017-09-04T08:05:45.732Z,-3.5
2017-09-04T08:06:44.911Z,-3.5
2017-09-04T08:07:44.088Z,-3.5
2017-09-04T08:08:43.290Z,-3.7
2017-09-04T08:09:42.752Z,-3.6
2017-09-04T08:10:41.552Z,-3.6
2017-09-04T08:11:40.730Z,-3.4
2017-09-04T08:12:40.045Z,-3.7
2017-09-04T08:13:39.352Z,-3.9
2017-09-04T08:14:38.540Z,-4.1
2017-09-04T08:15:37.847Z,-4.2
2017-09-04T08:16:37.163Z,-4.1
2017-09-04T08:17:36.594Z,-4.1
2017-09-04T08:18:35.270Z,-3.8
2017-09-04T08:19:34.331Z,-3.9
2017-09-04T08:20:34.143Z,-3.8
2017-09-04T08:21:33.067Z,-3.8
2017-09-04T08:22:32.254Z,-3.8
2017-09-04T08:23:31.440Z,-3.8
2017-09-04T08:24:30.743Z,-3.8
2017-09-04T08:25:29.926Z,-3.8
2017-09-04T08:26:29.374Z,-4
2017-09-04T08:27:28.435Z,-4
2017-09-04T08:28:27.873Z,-4
2017-09-04T08:29:26.799Z,-3.7
2017-09-04T08:30:25.861Z,-3.6
2017-09-04T08:31:25.550Z,-3.6
2017-09-04T08:32:24.478Z,-3.8
2017-09-04T08:33:23.790Z,-3.8
2017-09-04T08:34:22.972Z,-3.8
2017-09-04T08:35:22.035Z,-3.7
2017-09-04T08:36:21.846Z,-3.6
2017-09-04T08:37:20.406Z,-3.6
2017-09-04T08:38:20.360Z,-3.8
2017-09-04T08:39:19.170Z,-3.6
2017-09-04T08:40:18.350Z,-3.9
2017-09-04T08:41:17.652Z,-3.8
2017-09-04T08:42:17.090Z,-3.7
2017-09-04T08:43:16.283Z,-3.8
2017-09-04T08:44:15.582Z,-3.6
2017-09-04T08:45:15.030Z,-3.6
2017-09-04T08:46:13.715Z,-3.6
2017-09-04T08:47:12.900Z,-3.6
2017-09-04T08:48:12.582Z,-3.4
2017-09-04T08:49:11.892Z,-3.4
2017-09-04T08:50:11.202Z,-3.4
2017-09-04T08:51:10.010Z,-3.4
2017-09-04T08:52:09.203Z,-3.4
2017-09-04T08:53:08.639Z,-3.5
2017-09-04T08:54:07.695Z,-3.5
2017-09-04T08:55:07.126Z,-3.4
2017-09-04T08:56:06.439Z,-3.3
2017-09-04T08:57:05.871Z,-3.3
2017-09-04T08:58:05.180Z,-3.2
2017-09-04T08:59:03.987Z,-3.5
2017-09-04T09:00:03.448Z,-3.3
2017-09-04T09:01:03.010Z,-3.3
2017-09-04T09:02:01.442Z,-3.1
2017-09-04T09:03:01.258Z,-2.9
2017-09-04T09:04:00.569Z,-3
2017-09-04T09:05:00.018Z,-2.9
2017-09-04T09:05:59.095Z,-3
2017-09-04T09:06:58.046Z,-3.1
2017-09-04T09:09:55.759Z,-3.1
2017-09-04T09:10:55.195Z,-2.9
2017-09-04T09:11:54.507Z,-2.9
2017-09-04T09:12:53.950Z,-2.8
2017-09-04T09:13:52.895Z,-2.7
2017-09-04T09:14:52.329Z,-2.7
2017-09-04T09:15:51.509Z,-2.8
2017-09-04T09:16:51.086Z,-2.7
2017-09-04T09:17:49.640Z,-2.8
2017-09-04T09:18:49.449Z,-2.7
2017-09-04T09:19:48.751Z,-2.7
2017-09-04T09:20:47.796Z,-2.5
2017-09-04T09:21:47.223Z,-2.6
2017-09-04T09:22:46.163Z,-2.5
2017-09-04T09:23:45.609Z,-2.5
2017-09-04T09:24:44.787Z,-2.4
2017-09-04T09:25:44.220Z,-2.5
2017-09-04T09:26:43.400Z,-2.4
2017-09-04T09:27:42.593Z,-2.3
2017-09-04T09:28:41.773Z,-2.3
2017-09-04T09:29:41.339Z,-2.2
2017-09-04T09:30:39.892Z,-2.1
2017-09-04T09:31:39.822Z,-2
2017-09-04T09:32:38.622Z,-1.9
2017-09-04T09:33:38.169Z,-1.9
2017-09-04T09:34:37.477Z,-1.9
2017-09-04T09:35:36.660Z,-1.7
2017-09-04T09:36:36.097Z,-1.7
2017-09-04T09:37:35.539Z,-1.7
2017-09-04T09:38:34.857Z,-1.6
2017-09-04T09:39:33.800Z,-1.6
2017-09-04T09:40:33.374Z,-1.6
2017-09-04T09:41:32.437Z,-1.6
2017-09-04T09:42:32.000Z,-1.5
2017-09-04T09:43:31.070Z,-1.6
2017-09-04T09:44:30.642Z,-1.5
2017-09-04T09:45:29.709Z,-1.6
2017-09-04T09:46:29.158Z,-1.6
2017-09-04T09:47:27.718Z,-1.5
2017-09-04T09:48:27.656Z,-1.3
2017-09-04T09:49:26.453Z,-1.2
2017-09-04T09:50:26.004Z,-1.1
2017-09-04T09:51:25.321Z,-1
2017-09-04T09:52:24.878Z,-0.8
2017-09-04T09:53:23.940Z,-0.9
2017-09-04T09:54:23.006Z,-0.7
2017-09-04T09:55:22.438Z,-0.4
2017-09-04T09:56:21.742Z,-0.4
2017-09-04T09:57:21.172Z,-0.5
2017-09-04T09:58:20.361Z,-0.6
2017-09-04T09:59:19.681Z,-0.6
2017-09-04T10:00:18.612Z,-0.5
2017-09-04T10:01:18.175Z,-0.5
2017-09-04T10:02:17.363Z,-0.6
2017-09-04T10:03:16.542Z,-0.6
2017-09-04T10:04:15.851Z,-0.7
2017-09-04T10:05:15.639Z,-0.6
2017-09-04T10:06:14.566Z,-0.8
2017-09-04T10:07:13.877Z,-0.9
2017-09-04T10:08:13.310Z,-0.9
2017-09-04T10:09:12.493Z,-0.6
2017-09-04T10:10:11.801Z,-0.6
2017-09-04T10:11:11.237Z,-0.5
2017-09-04T10:12:10.421Z,-0.3
2017-09-04T10:13:09.839Z,-0.4
2017-09-04T10:14:08.513Z,-0.6
2017-09-04T10:15:08.570Z,-0.7
2017-09-04T10:16:07.492Z,-0.7
2017-09-04T10:17:06.940Z,-0.8
2017-09-04T10:18:06.495Z,-0.9
2017-09-04T10:19:05.431Z,-1
2017-09-04T10:20:04.870Z,-1
2017-09-04T10:21:04.426Z,-0.9
2017-09-04T10:22:03.111Z,-0.8
2017-09-04T10:23:03.047Z,-0.7
2017-09-04T10:24:01.855Z,-0.6
2017-09-04T10:25:01.293Z,-0.6
2017-09-04T10:26:00.726Z,-0.5
2017-09-04T10:27:00.279Z,-0.4
2017-09-04T10:27:59.083Z,-0.5
2017-09-04T10:28:58.550Z,-0.5
2017-09-04T10:29:57.989Z,-0.4
2017-09-04T10:30:57.301Z,-0.4
2017-09-04T10:32:55.735Z,-0.6
2017-09-04T10:33:54.782Z,-0.6
2017-09-04T10:34:54.605Z,-0.7
2017-09-04T10:35:53.274Z,-0.7
2017-09-04T10:36:52.962Z,-0.8
2017-09-04T10:37:52.397Z,-1
2017-09-04T10:38:51.824Z,-0.9
2017-09-04T10:39:50.502Z,-1
2017-09-04T10:40:50.440Z,-1
2017-09-04T10:41:49.744Z,-1
2017-09-04T10:42:49.052Z,-1
2017-09-04T10:43:48.479Z,-0.9
2017-09-04T10:44:47.909Z,-0.9
2017-09-04T10:45:46.840Z,-0.9
2017-09-04T10:46:46.022Z,-0.8
2017-09-04T10:47:45.588Z,-0.8
2017-09-04T10:49:44.543Z,-0.6
2017-09-04T10:50:43.221Z,-0.5
2017-09-04T10:51:42.535Z,-0.5
2017-09-04T10:52:42.101Z,-0.5
2017-09-04T10:53:41.286Z,-0.7
2017-09-04T10:54:40.853Z,-0.8
2017-09-04T10:55:40.036Z,-0.8
2017-09-04T10:56:39.463Z,-0.9
2017-09-04T10:57:38.898Z,-0.9
2017-09-04T10:58:37.828Z,-0.9
2017-09-04T10:59:37.516Z,-0.8
2017-09-04T11:00:36.580Z,-0.8
2017-09-04T11:01:36.131Z,-0.9
2017-09-04T11:02:35.318Z,-0.9
2017-09-04T11:03:34.499Z,-0.8
2017-09-04T11:04:33.696Z,-0.7
2017-09-04T11:05:33.007Z,-0.6
2017-09-04T11:07:31.688Z,-0.5
2017-09-04T11:08:30.889Z,-0.5
2017-09-04T11:09:30.340Z,-0.4
2017-09-04T11:10:29.527Z,-0.4
2017-09-04T11:11:29.220Z,-0.3
2017-09-04T11:12:28.536Z,-0.2
2017-09-04T11:13:27.850Z,-0.2
2017-09-04T11:14:26.787Z,-0.2
2017-09-04T11:15:26.599Z,-0.2
2017-09-04T11:16:25.896Z,-0.2
2017-09-04T11:17:25.206Z,-0.2
2017-09-04T11:17:55.957Z,-0.2
2017-09-04T11:18:26.451Z,-0.2
2017-09-04T11:18:56.440Z,-0.2
2017-09-04T11:19:27.190Z,-0.3
2017-09-04T11:20:22.719Z,-0.4
2017-09-04T11:21:22.518Z,-0.4
2017-09-04T11:22:21.951Z,-0.5
2017-09-04T11:23:20.880Z,-0.6
2017-09-04T11:24:20.315Z,-0.6
2017-09-04T11:25:19.756Z,-0.6
2017-09-04T11:26:18.931Z,-0.7
2017-09-04T11:27:18.115Z,-0.6
2017-09-04T11:28:17.543Z,-0.6
2017-09-04T11:29:16.854Z,-0.6
2017-09-04T11:30:16.147Z,-0.6
2017-09-04T11:31:15.579Z,-0.6
2017-09-04T11:32:14.883Z,-0.5
2017-09-04T11:33:14.312Z,-0.4
2017-09-04T11:34:13.631Z,-0.3
2017-09-04T11:35:13.184Z,-0.3
2017-09-04T11:36:12.114Z,-0.2
2017-09-04T11:37:11.552Z,-0.2
2017-09-04T11:38:10.997Z,-0.2
2017-09-04T11:39:10.054Z,-0.3
2017-09-04T11:40:09.727Z,-0.4
2017-09-04T11:41:09.281Z,-0.4
2017-09-04T11:42:08.086Z,-0.4
2017-09-04T11:43:07.260Z,-0.4
2017-09-04T11:44:07.070Z,-0.3
2017-09-04T11:45:06.754Z,-0.3
2017-09-04T11:46:05.803Z,-0.3
2017-09-04T11:47:05.235Z,-0.2
2017-09-04T11:48:04.667Z,0
2017-09-04T11:49:03.345Z,-0.1
2017-09-04T11:50:02.545Z,0
2017-09-04T11:51:02.245Z,0.1
2017-09-04T11:52:01.814Z,0.3
2017-09-04T11:53:01.249Z,0.2
2017-09-04T11:54:00.547Z,0.2
2017-09-04T11:55:00.112Z,0.2
2017-09-04T11:55:59.045Z,0.3
2017-09-04T11:56:58.461Z,0.3
2017-09-04T11:57:58.025Z,0.3
2017-09-04T11:58:56.702Z,0.4
2017-09-04T11:59:56.626Z,0.2
2017-09-04T12:00:55.823Z,0.2
2017-09-04T12:01:55.507Z,0.1
2017-09-04T12:02:54.321Z,0.1
2017-09-04T12:03:53.865Z,-0.2
2017-09-04T12:04:53.301Z,-0.3
2017-09-04T12:06:52.284Z,-0.4
2017-09-04T12:07:50.704Z,-0.4
2017-09-04T12:08:50.507Z,-0.5
2017-09-04T12:09:50.070Z,-0.6
2017-09-04T12:10:49.259Z,-0.5
2017-09-04T12:11:48.577Z,-0.6
2017-09-04T12:12:19.079Z,-0.6
2017-09-04T12:12:49.702Z,-0.6
2017-09-04T12:13:47.374Z,-0.5
2017-09-04T12:14:46.930Z,-0.5
2017-09-04T12:15:46.109Z,-0.6
2017-09-04T12:16:45.673Z,-0.7
2017-09-04T12:17:44.730Z,-0.7
2017-09-04T12:18:44.031Z,-0.7
2017-09-04T12:19:43.333Z,-0.7
2017-09-04T12:20:42.772Z,-0.7
2017-09-04T12:21:41.824Z,-0.7
2017-09-04T12:22:41.371Z,-0.7
2017-09-04T12:23:40.674Z,-0.7
2017-09-04T12:24:39.975Z,-0.7
2017-09-04T12:25:39.286Z,-0.8
2017-09-04T12:26:38.844Z,-0.8
2017-09-04T12:27:38.150Z,-0.8
2017-09-04T12:28:37.572Z,-0.7
2017-09-04T12:29:37.005Z,-0.7
2017-09-04T12:30:36.331Z,-0.8
2017-09-04T12:31:35.892Z,-0.8
2017-09-04T12:32:35.194Z,-0.7
2017-09-04T12:33:34.121Z,-0.7
2017-09-04T12:34:33.551Z,-0.7
2017-09-04T12:35:32.856Z,-0.6
2017-09-04T12:36:32.166Z,-0.6
2017-09-04T12:37:31.366Z,-0.6
2017-09-04T12:38:30.829Z,-0.5
2017-09-04T12:39:30.644Z,-0.4
2017-09-04T12:40:29.837Z,-0.4
2017-09-04T12:41:29.528Z,-0.5
2017-09-04T12:43:27.728Z,-0.4
2017-09-04T12:44:27.417Z,-0.4
2017-09-04T12:45:26.725Z,-0.3
2017-09-04T12:46:25.643Z,-0.3
2017-09-04T12:47:24.826Z,-0.2
2017-09-04T12:48:24.645Z,-0.2
2017-09-04T12:49:24.087Z,-0.2
2017-09-04T12:50:23.026Z,-0.1
2017-09-04T12:51:22.452Z,-0.3
2017-09-04T12:52:21.762Z,-0.3
2017-09-04T12:53:21.216Z,-0.2
2017-09-04T12:54:20.397Z,-0.1
2017-09-04T12:55:20.207Z,0.1
2017-09-04T12:56:19.803Z,0.3
2017-09-04T12:57:18.729Z,0.5
2017-09-04T12:58:18.034Z,0.6
2017-09-04T12:59:17.480Z,0.8
2017-09-04T13:00:17.045Z,0.8
2017-09-04T13:01:15.717Z,1
2017-09-04T13:02:15.534Z,1.1
2017-09-04T13:03:14.968Z,1.2
2017-09-04T13:04:13.518Z,1.2
2017-09-04T13:05:13.327Z,1
2017-09-04T13:06:12.655Z,1
2017-09-04T13:07:12.204Z,1
2017-09-04T13:08:11.511Z,1
2017-09-04T13:08:42.130Z,1
2017-09-04T13:09:12.635Z,1
2017-09-04T13:10:09.935Z,0.8
2017-09-04T13:11:09.626Z,0.8
2017-09-04T13:12:08.815Z,0.7
2017-09-04T13:13:08.492Z,0.8
2017-09-04T13:14:07.681Z,0.7
2017-09-04T13:15:07.237Z,0.6
2017-09-04T13:16:06.285Z,0.7
2017-09-04T13:17:05.467Z,0.9
2017-09-04T13:18:05.273Z,1.1
2017-09-04T13:19:04.583Z,1.1
2017-09-04T13:20:04.018Z,1.3
2017-09-04T13:21:03.191Z,1.4
2017-09-04T13:22:02.653Z,1.4
2017-09-04T13:23:01.961Z,1.4
2017-09-04T13:24:01.390Z,1.5
2017-09-04T13:25:00.821Z,1.5
2017-09-04T13:26:00.256Z,1.6
2017-09-04T13:26:59.692Z,1.7
2017-09-04T13:27:59.133Z,1.8
2017-09-04T13:28:58.063Z,1.7
2017-09-04T13:29:57.878Z,1.7
2017-09-04T13:30:56.929Z,1.8
2017-09-04T13:31:56.357Z,1.9
2017-09-04T13:33:54.928Z,1.9
2017-09-04T13:34:54.858Z,2.1
2017-09-04T13:35:53.662Z,2.2
2017-09-04T13:36:52.980Z,2.2
2017-09-04T13:37:52.672Z,2.1
2017-09-04T13:38:51.732Z,2
2017-09-04T13:39:51.541Z,2
2017-09-04T13:40:50.723Z,1.9
2017-09-04T13:41:49.906Z,1.8
2017-09-04T13:42:49.468Z,1.8
2017-09-04T13:43:48.897Z,1.9
2017-09-04T13:44:48.341Z,1.9
2017-09-04T13:45:47.641Z,1.8
2017-09-04T13:46:46.580Z,1.7
2017-09-04T13:47:46.143Z,1.7
2017-09-04T13:48:46.215Z,1.9
2017-09-04T13:49:45.660Z,1.7
2017-09-04T13:50:44.460Z,1.8
2017-09-04T13:51:44.265Z,1.6
2017-09-04T13:52:43.994Z,1.5
2017-09-04T13:53:42.556Z,1.5
2017-09-04T13:54:42.231Z,1.4
2017-09-04T13:55:41.536Z,1.3
2017-09-04T13:56:40.841Z,1.4
2017-09-04T13:57:40.282Z,1.4